Terminal Aerodrome Forecast
Issued by NWS Sterling, VA

Current Version | Previous Version | Text Only | Print | Product List | Glossary Off
Versions: 1 2 3 4 5 6 7 8 9 10 11 12 13 14 15 16 17 18 19 20 21 22 23 24 25 26

000
FTUS41 KLWX 172059 AAA
TAFDCA
TAF AMD
KDCA 172059Z 1721/1818 18010KT P6SM SCT045
     FM180000 17008KT P6SM VCTS SCT040CB BKN100
     FM180300 17006KT P6SM SCT045 BKN250
     FM181200 20006KT P6SM BKN015 BKN040
     FM181500 20007KT P6SM SCT040 BKN120=

USA.gov is the U.S. government's official web portal to all federal, state and local government web resources and services.